createdAt,value
2018-10-07T00:01:59.892Z,93355.21
2018-10-07T00:04:27.427Z,93354.30
2018-10-07T00:06:54.956Z,93356.03
2018-10-07T00:09:22.896Z,93354.52
2018-10-07T00:11:50.491Z,93353.49
2018-10-07T00:14:18.050Z,93361.64
2018-10-07T00:16:45.595Z,93360.72
2018-10-07T00:19:13.120Z,93362.11
2018-10-07T00:21:41.107Z,93365.09
2018-10-07T00:24:08.639Z,93362.00
2018-10-07T00:26:36.534Z,93363.61
2018-10-07T00:29:04.145Z,93360.97
2018-10-07T00:31:36.168Z,93360.28
2018-10-07T00:34:04.104Z,93358.27
2018-10-07T00:36:31.619Z,93357.44
2018-10-07T00:38:59.156Z,93360.23
2018-10-07T00:41:26.718Z,93363.67
2018-10-07T00:43:54.246Z,93366.28
2018-10-07T00:46:21.823Z,93367.48
2018-10-07T00:48:49.355Z,93361.27
2018-10-07T00:51:16.894Z,93360.24
2018-10-07T00:53:44.467Z,93360.24
2018-10-07T00:56:12.001Z,93366.66
2018-10-07T00:58:39.578Z,93366.59
2018-10-07T01:01:07.149Z,93368.06
2018-10-07T01:03:34.693Z,93364.81
2018-10-07T01:06:02.251Z,93359.09
2018-10-07T01:08:29.824Z,93360.98
2018-10-07T01:10:57.385Z,93358.69
2018-10-07T01:13:24.954Z,93361.68
2018-10-07T01:15:52.515Z,93360.13
2018-10-07T01:18:20.082Z,93368.04
2018-10-07T01:20:47.671Z,93372.09
2018-10-07T01:23:15.234Z,93376.27
2018-10-07T01:25:42.868Z,93369.26
2018-10-07T01:28:10.397Z,93364.16
2018-10-07T01:30:38.206Z,93362.64
2018-10-07T01:33:05.723Z,93360.41
2018-10-07T01:35:33.240Z,93369.30
2018-10-07T01:38:00.781Z,93366.00
2018-10-07T01:40:28.299Z,93368.94
2018-10-07T01:42:55.978Z,93370.67
2018-10-07T01:45:23.498Z,93375.64
2018-10-07T01:47:51.019Z,93368.94
2018-10-07T01:50:18.538Z,93375.09
2018-10-07T01:52:46.074Z,93378.84
2018-10-07T01:55:13.600Z,93372.00
2018-10-07T01:57:41.135Z,93377.26
2018-10-07T02:00:08.998Z,93373.44
2018-10-07T02:02:36.507Z,93376.63
2018-10-07T02:05:04.116Z,93379.56
2018-10-07T02:07:31.666Z,93379.44
2018-10-07T02:09:59.186Z,93374.24
2018-10-07T02:12:26.937Z,93375.69
2018-10-07T02:14:54.451Z,93379.61
2018-10-07T02:17:22.314Z,93378.59
2018-10-07T02:19:49.850Z,93383.56
2018-10-07T02:22:17.381Z,93381.73
2018-10-07T02:24:44.925Z,93377.26
2018-10-07T02:27:12.463Z,93381.61
2018-10-07T02:29:40.000Z,93387.22
2018-10-07T02:32:07.558Z,93385.02
2018-10-07T02:34:35.078Z,93391.34
2018-10-07T02:37:02.682Z,93386.20
2018-10-07T02:39:30.205Z,93394.69
2018-10-07T02:41:58.111Z,93389.50
2018-10-07T02:44:25.669Z,93402.37
2018-10-07T02:46:53.199Z,93399.44
2018-10-07T02:49:20.739Z,93406.56
2018-10-07T02:51:48.342Z,93413.36
2018-10-07T02:54:16.227Z,93416.22
2018-10-07T02:56:43.798Z,93415.42
2018-10-07T02:59:11.450Z,93420.84
2018-10-07T03:01:39.005Z,93421.41
2018-10-07T03:04:06.593Z,93420.98
2018-10-07T03:06:34.141Z,93424.80
2018-10-07T03:09:01.674Z,93425.96
2018-10-07T03:11:29.215Z,93424.64
2018-10-07T03:13:56.839Z,93422.03
2018-10-07T03:16:24.375Z,93425.48
2018-10-07T03:18:51.918Z,93424.64
2018-10-07T03:21:19.448Z,93422.84
2018-10-07T03:23:47.007Z,93432.63
2018-10-07T03:26:14.529Z,93430.86
2018-10-07T03:28:42.124Z,93439.09
2018-10-07T03:31:09.635Z,93435.11
2018-10-07T03:33:37.155Z,93439.92
2018-10-07T03:36:04.719Z,93435.02
2018-10-07T03:38:32.289Z,93438.57
2018-10-07T03:40:59.878Z,93440.17
2018-10-07T03:43:27.417Z,93441.55
2018-10-07T03:45:54.975Z,93453.95
2018-10-07T03:48:22.530Z,93453.65
2018-10-07T03:50:50.159Z,93448.03
2018-10-07T03:53:17.674Z,93449.75
2018-10-07T03:55:45.222Z,93450.52
2018-10-07T03:58:12.731Z,93448.38
2018-10-07T04:00:40.327Z,93442.20
2018-10-07T04:03:07.887Z,93445.68
2018-10-07T04:05:35.412Z,93448.31
2018-10-07T04:08:03.294Z,93447.14
2018-10-07T04:10:30.825Z,93443.27
2018-10-07T04:12:58.339Z,93445.70
2018-10-07T04:15:25.870Z,93450.88
2018-10-07T04:17:53.391Z,93448.69
2018-10-07T04:20:20.924Z,93451.47
2018-10-07T04:22:48.442Z,93459.25
2018-10-07T04:25:15.992Z,93458.39
2018-10-07T04:27:43.551Z,93460.09
2018-10-07T04:30:11.065Z,93463.00
2018-10-07T04:32:38.593Z,93464.86
2018-10-07T04:35:06.198Z,93461.83
2018-10-07T04:37:33.715Z,93463.47
2018-10-07T04:40:01.545Z,93459.84
2018-10-07T04:42:29.061Z,93460.09
2018-10-07T04:44:56.578Z,93459.00
2018-10-07T04:47:24.135Z,93460.27
2018-10-07T04:49:51.650Z,93457.44
2018-10-07T04:52:19.183Z,93458.39
2018-10-07T04:54:46.742Z,93458.17
2018-10-07T04:57:14.288Z,93464.45
2018-10-07T04:59:41.822Z,93459.84
2018-10-07T05:02:09.404Z,93460.61
2018-10-07T05:04:36.993Z,93457.05
2018-10-07T05:07:04.544Z,93460.11
2018-10-07T05:09:32.125Z,93461.87
2018-10-07T05:12:00.838Z,93467.91
2018-10-07T05:14:28.402Z,93471.22
2018-10-07T05:16:55.990Z,93467.83
2018-10-07T05:19:23.950Z,93467.56
2018-10-07T05:21:51.502Z,93467.13
2018-10-07T05:24:19.096Z,93470.56
2018-10-07T05:26:46.631Z,93466.14
2018-10-07T05:29:14.150Z,93464.23
2018-10-07T05:31:42.057Z,93474.10
2018-10-07T05:34:09.670Z,93469.20
2018-10-07T05:36:37.210Z,93475.41
2018-10-07T05:39:07.161Z,93476.87
2018-10-07T05:41:34.738Z,93488.75
2018-10-07T05:44:02.250Z,93488.14
2018-10-07T05:46:29.965Z,93491.98
2018-10-07T05:48:57.498Z,93487.56
2018-10-07T05:51:25.031Z,93485.52
2018-10-07T05:53:52.610Z,93490.06
2018-10-07T05:56:20.146Z,93488.05
2018-10-07T05:58:47.954Z,93499.03
2018-10-07T06:01:17.863Z,93502.27
2018-10-07T06:03:51.073Z,93505.07
2018-10-07T06:06:18.675Z,93513.19
2018-10-07T06:08:46.259Z,93512.93
2018-10-07T06:11:13.814Z,93523.05
2018-10-07T06:13:41.375Z,93531.55
2018-10-07T06:16:08.922Z,93526.44
2018-10-07T06:18:36.477Z,93533.33
2018-10-07T06:21:04.202Z,93533.55
2018-10-07T06:23:31.802Z,93535.30
2018-10-07T06:25:59.363Z,93538.69
2018-10-07T06:28:26.926Z,93548.61
2018-10-07T06:30:54.451Z,93543.33
2018-10-07T06:33:22.015Z,93553.20
2018-10-07T06:35:49.607Z,93555.38
2018-10-07T06:38:17.152Z,93563.73
2018-10-07T06:40:45.060Z,93558.98
2018-10-07T06:43:12.600Z,93561.27
2018-10-07T06:45:40.156Z,93566.08
2018-10-07T06:48:07.754Z,93567.16
2018-10-07T06:50:35.356Z,93567.57
2018-10-07T06:53:02.963Z,93569.41
2018-10-07T06:55:30.503Z,93572.66
2018-10-07T06:57:58.042Z,93578.50
2018-10-07T07:00:25.599Z,93587.09
2018-10-07T07:02:53.147Z,93585.67
2018-10-07T07:05:20.714Z,93589.19
2018-10-07T07:07:48.227Z,93594.74
2018-10-07T07:10:15.907Z,93598.36
2018-10-07T07:12:43.470Z,93597.07
2018-10-07T07:15:11.052Z,93592.43
2018-10-07T07:17:38.602Z,93597.83
2018-10-07T07:20:06.442Z,93594.39
2018-10-07T07:22:34.010Z,93601.23
2018-10-07T07:25:01.546Z,93601.09
2018-10-07T07:27:29.124Z,93602.14
2018-10-07T07:29:56.674Z,93607.56
2018-10-07T07:32:24.225Z,93607.27
2018-10-07T07:34:52.080Z,93602.25
2018-10-07T07:37:19.625Z,93598.17
2018-10-07T07:39:47.244Z,93591.84
2018-10-07T07:42:14.897Z,93593.72
2018-10-07T07:44:42.383Z,93601.67
2018-10-07T07:47:09.999Z,93604.48
2018-10-07T07:49:37.570Z,93602.58
2018-10-07T07:52:05.136Z,93610.77
2018-10-07T07:54:32.722Z,93614.21
2018-10-07T07:57:00.267Z,93617.86
2018-10-07T07:59:27.859Z,93624.31
2018-10-07T08:01:55.403Z,93625.33
2018-10-07T08:04:22.942Z,93621.63
2018-10-07T08:06:50.501Z,93628.20
2018-10-07T08:09:18.067Z,93623.28
2018-10-07T08:11:45.599Z,93631.31
2018-10-07T08:14:13.194Z,93637.92
2018-10-07T08:16:40.763Z,93636.15
2018-10-07T08:19:08.386Z,93628.20
2018-10-07T08:21:35.963Z,93634.80
2018-10-07T08:24:03.574Z,93633.23
2018-10-07T08:26:31.122Z,93634.60
2018-10-07T08:28:58.695Z,93636.97
2018-10-07T08:31:26.281Z,93631.13
2018-10-07T08:33:53.835Z,93634.02
2018-10-07T08:36:21.418Z,93630.20
2018-10-07T08:38:48.984Z,93629.05
2018-10-07T08:41:16.546Z,93625.38
2018-10-07T08:43:44.082Z,93627.55
2018-10-07T08:46:11.699Z,93632.32
2018-10-07T08:48:39.570Z,93631.52
2018-10-07T08:51:07.167Z,93623.95
2018-10-07T08:53:34.723Z,93631.77
2018-10-07T08:56:02.437Z,93628.06
2018-10-07T08:58:29.929Z,93628.23
2018-10-07T09:00:57.842Z,93628.98
2018-10-07T09:03:25.438Z,93632.08
2018-10-07T09:05:53.004Z,93628.33
2018-10-07T09:08:20.584Z,93628.73
2018-10-07T09:10:48.146Z,93629.78
2018-10-07T09:13:15.703Z,93629.92
2018-10-07T09:15:43.258Z,93630.56
2018-10-07T09:18:10.838Z,93633.16
2018-10-07T09:20:38.398Z,93631.53
2018-10-07T09:23:06.050Z,93634.48
2018-10-07T09:25:33.688Z,93635.17
2018-10-07T09:28:01.303Z,93644.30
2018-10-07T09:30:29.324Z,93640.12
2018-10-07T09:32:57.301Z,93639.28
2018-10-07T09:35:24.761Z,93643.06
2018-10-07T09:37:52.352Z,93641.92
2018-10-07T09:40:19.907Z,93639.83
2018-10-07T09:42:47.473Z,93635.34
2018-10-07T09:45:15.061Z,93634.13
2018-10-07T09:47:42.685Z,93648.92
2018-10-07T09:50:10.265Z,93643.00
2018-10-07T09:52:37.830Z,93645.95
2018-10-07T09:55:05.415Z,93654.96
2018-10-07T09:57:33.026Z,93646.63
2018-10-07T10:00:00.579Z,93647.83
2018-10-07T10:02:28.154Z,93646.53
2018-10-07T10:04:55.739Z,93646.47
2018-10-07T10:07:23.393Z,93653.23
2018-10-07T10:09:50.954Z,93654.33
2018-10-07T10:12:18.522Z,93657.09
2018-10-07T10:14:46.085Z,93655.23
2018-10-07T10:17:15.218Z,93656.41
2018-10-07T10:19:52.772Z,93657.59
2018-10-07T10:22:23.895Z,93657.79
2018-10-07T10:24:57.167Z,93655.13
2018-10-07T10:27:33.679Z,93653.95
2018-10-07T10:30:02.103Z,93656.84
2018-10-07T10:32:31.810Z,93656.86
2018-10-07T10:35:10.098Z,93657.88
2018-10-07T10:37:40.784Z,93663.78
2018-10-07T10:40:44.330Z,93670.27
2018-10-07T10:43:14.188Z,93666.86
2018-10-07T10:46:49.658Z,93669.01
2018-10-07T10:49:31.428Z,93668.63
2018-10-07T10:52:31.167Z,93673.45
2018-10-07T10:55:03.357Z,93669.64
2018-10-07T10:57:32.994Z,93675.16
2018-10-07T11:00:16.827Z,93674.94
2018-10-07T11:02:49.980Z,93675.11
2018-10-07T11:05:26.820Z,93670.92
2018-10-07T11:08:00.592Z,93667.25
2018-10-07T11:10:31.404Z,93674.22
2018-10-07T11:13:10.494Z,93671.39
2018-10-07T11:15:42.715Z,93684.58
2018-10-07T11:18:11.131Z,93684.45
2018-10-07T11:20:43.350Z,93694.06
2018-10-07T11:23:32.222Z,93685.82
2018-10-07T11:26:03.877Z,93692.83
2018-10-07T11:28:37.818Z,93688.02
2018-10-07T11:31:11.063Z,93699.23
2018-10-07T11:34:11.973Z,93694.44
2018-10-07T11:36:54.944Z,93698.70
2018-10-07T11:39:28.030Z,93700.05
2018-10-07T11:43:01.282Z,93698.70
2018-10-07T11:45:30.487Z,93696.83
2018-10-07T11:48:04.222Z,93705.39
2018-10-07T11:50:36.519Z,93701.10
2018-10-07T11:53:07.503Z,93701.35
2018-10-07T11:55:35.126Z,93701.87
2018-10-07T11:58:02.773Z,93702.92
2018-10-07T12:00:30.319Z,93703.98
2018-10-07T12:02:57.857Z,93703.20
2018-10-07T12:05:25.429Z,93705.11
2018-10-07T12:07:53.083Z,93703.53
2018-10-07T12:10:20.962Z,93712.27
2018-10-07T12:12:48.463Z,93711.48
2018-10-07T12:15:16.043Z,93706.94
2018-10-07T12:17:43.935Z,93699.42
2018-10-07T12:20:11.500Z,93701.31
2018-10-07T12:22:39.062Z,93707.71
2018-10-07T12:25:06.705Z,93701.81
2018-10-07T12:27:34.264Z,93701.71
2018-10-07T12:30:01.836Z,93695.31
2018-10-07T12:32:29.446Z,93698.98
2018-10-07T12:34:57.021Z,93707.39
2018-10-07T12:37:24.861Z,93712.47
2018-10-07T12:39:52.396Z,93713.03
2018-10-07T12:42:19.974Z,93723.60
2018-10-07T12:44:47.639Z,93724.02
2018-10-07T12:47:15.202Z,93723.48
2018-10-07T12:49:42.744Z,93723.50
2018-10-07T12:52:10.647Z,93731.94
2018-10-07T12:54:38.290Z,93729.45
2018-10-07T12:57:05.829Z,93724.95
2018-10-07T12:59:33.407Z,93726.56
2018-10-07T13:02:00.992Z,93725.67
2018-10-07T13:04:28.907Z,93724.39
2018-10-07T13:06:56.513Z,93732.39
2018-10-07T13:09:24.067Z,93730.60
2018-10-07T13:11:51.659Z,93726.38
2018-10-07T13:14:19.231Z,93730.58
2018-10-07T13:16:46.812Z,93735.00
2018-10-07T13:19:14.417Z,93739.28
2018-10-07T13:21:41.918Z,93737.66
2018-10-07T13:24:09.518Z,93736.73
2018-10-07T13:26:37.114Z,93742.63
2018-10-07T13:29:04.669Z,93739.73
2018-10-07T13:31:32.239Z,93743.87
2018-10-07T13:33:59.797Z,93737.50
2018-10-07T13:36:27.347Z,93741.76
2018-10-07T13:38:54.948Z,93739.35
2018-10-07T13:41:22.518Z,93738.26
2018-10-07T13:43:50.097Z,93738.34
2018-10-07T13:46:17.666Z,93742.95
2018-10-07T13:48:45.242Z,93739.15
2018-10-07T13:51:12.823Z,93740.77
2018-10-07T13:53:40.456Z,93734.94
2018-10-07T13:56:08.093Z,93736.57
2018-10-07T13:58:35.732Z,93727.17
2018-10-07T14:01:03.269Z,93732.55
2018-10-07T14:03:30.911Z,93726.95
2018-10-07T14:05:58.419Z,93736.84
2018-10-07T14:08:26.006Z,93741.61
2018-10-07T14:10:53.548Z,93730.31
2018-10-07T14:13:21.378Z,93734.02
2018-10-07T14:15:48.939Z,93735.10
2018-10-07T14:18:16.509Z,93736.30
2018-10-07T14:20:44.391Z,93738.86
2018-10-07T14:23:11.948Z,93740.41
2018-10-07T14:25:39.505Z,93745.84
2018-10-07T14:28:07.193Z,93738.03
2018-10-07T14:30:36.300Z,93747.61
2018-10-07T14:33:05.031Z,93737.13
2018-10-07T14:35:32.623Z,93741.48
2018-10-07T14:38:00.218Z,93733.77
2018-10-07T14:40:27.782Z,93732.64
2018-10-07T14:42:55.375Z,93740.14
2018-10-07T14:45:22.965Z,93734.19
2018-10-07T14:47:50.529Z,93741.27
2018-10-07T14:50:18.123Z,93732.83
2018-10-07T14:52:45.700Z,93739.52
2018-10-07T14:55:13.294Z,93744.78
2018-10-07T14:57:40.867Z,93736.75
2018-10-07T15:00:08.447Z,93747.81
2018-10-07T15:02:36.003Z,93744.41
2018-10-07T15:05:03.995Z,93752.69
2018-10-07T15:07:31.879Z,93750.95
2018-10-07T15:09:59.481Z,93743.01
2018-10-07T15:12:27.288Z,93750.91
2018-10-07T15:14:54.860Z,93751.44
2018-10-07T15:17:22.431Z,93754.86
2018-10-07T15:19:50.025Z,93756.95
2018-10-07T15:22:17.602Z,93749.25
2018-10-07T15:24:45.244Z,93753.77
2018-10-07T15:27:12.797Z,93750.86
2018-10-07T15:29:40.366Z,93739.70
2018-10-07T15:32:07.944Z,93750.34
2018-10-07T15:34:35.494Z,93746.55
2018-10-07T15:37:04.777Z,93750.39
2018-10-07T15:39:33.279Z,93743.41
2018-10-07T15:42:01.741Z,93750.39
2018-10-07T15:44:29.339Z,93751.21
2018-10-07T15:46:56.889Z,93754.16
2018-10-07T15:49:24.799Z,93751.59
2018-10-07T15:51:52.366Z,93749.55
2018-10-07T15:54:19.939Z,93749.08
2018-10-07T15:56:47.633Z,93759.92
2018-10-07T15:59:15.097Z,93760.45
2018-10-07T16:01:42.655Z,93759.16
2018-10-07T16:04:10.311Z,93755.92
2018-10-07T16:06:37.868Z,93757.31
2018-10-07T16:09:06.584Z,93755.83
2018-10-07T16:11:34.198Z,93759.81
2018-10-07T16:14:01.755Z,93758.09
2018-10-07T16:16:29.374Z,93762.23
2018-10-07T16:18:58.030Z,93764.20
2018-10-07T16:21:25.675Z,93767.34
2018-10-07T16:23:53.322Z,93763.58
2018-10-07T16:26:20.943Z,93765.93
2018-10-07T16:28:48.535Z,93768.19
2018-10-07T16:31:16.085Z,93770.61
2018-10-07T16:33:43.659Z,93774.37
2018-10-07T16:36:11.580Z,93780.09
2018-10-07T16:38:39.111Z,93786.01
2018-10-07T16:41:06.763Z,93789.78
2018-10-07T16:43:34.338Z,93790.73
2018-10-07T16:46:02.034Z,93791.47
2018-10-07T16:48:30.295Z,93795.08
2018-10-07T16:50:57.891Z,93801.12
2018-10-07T16:53:25.487Z,93802.23
2018-10-07T16:55:53.050Z,93808.22
2018-10-07T16:58:20.619Z,93808.04
2018-10-07T17:00:48.276Z,93818.95
2018-10-07T17:03:15.862Z,93815.75
2018-10-07T17:05:43.441Z,93820.56
2018-10-07T17:08:11.049Z,93828.75
2018-10-07T17:10:38.650Z,93832.50
2018-10-07T17:13:06.298Z,93840.67
2018-10-07T17:15:33.820Z,93845.23
2018-10-07T17:18:01.453Z,93847.11
2018-10-07T17:20:29.048Z,93850.31
2018-10-07T17:22:56.775Z,93856.30
2018-10-07T17:25:24.355Z,93862.09
2018-10-07T17:27:51.919Z,93862.25
2018-10-07T17:30:19.661Z,93866.02
2018-10-07T17:32:47.246Z,93867.98
2018-10-07T17:35:14.852Z,93866.37
2018-10-07T17:37:42.412Z,93865.62
2018-10-07T17:40:10.002Z,93883.84
2018-10-07T17:42:37.623Z,93889.75
2018-10-07T17:45:05.175Z,93900.69
2018-10-07T17:47:32.753Z,93902.52
2018-10-07T17:50:00.315Z,93911.64
2018-10-07T17:52:27.887Z,93916.83
2018-10-07T17:54:55.691Z,93925.52
2018-10-07T17:57:23.154Z,93926.10
2018-10-07T17:59:50.737Z,93933.64
2018-10-07T18:02:18.700Z,93929.92
2018-10-07T18:04:46.238Z,93930.58
2018-10-07T18:07:13.782Z,93932.73
2018-10-07T18:09:41.390Z,93933.39
2018-10-07T18:12:08.944Z,93928.39
2018-10-07T18:14:36.501Z,93936.77
2018-10-07T18:17:04.071Z,93937.20
2018-10-07T18:19:31.811Z,93943.41
2018-10-07T18:21:59.412Z,93946.34
2018-10-07T18:24:26.958Z,93940.30
2018-10-07T18:26:54.583Z,93955.40
2018-10-07T18:29:22.159Z,93956.60
2018-10-07T18:31:50.015Z,93959.80
2018-10-07T18:34:17.702Z,93956.30
2018-10-07T18:36:45.193Z,93961.72
2018-10-07T18:39:12.802Z,93971.16
2018-10-07T18:41:40.400Z,93968.94
2018-10-07T18:44:08.653Z,93977.81
2018-10-07T18:46:36.207Z,93984.72
2018-10-07T18:49:04.055Z,93980.31
2018-10-07T18:51:31.646Z,93981.05
2018-10-07T18:53:59.248Z,93982.23
2018-10-07T18:56:26.827Z,93982.69
2018-10-07T18:58:54.423Z,93991.51
2018-10-07T19:01:22.071Z,93988.72
2018-10-07T19:03:49.683Z,93985.83
2018-10-07T19:06:17.304Z,93990.33
2018-10-07T19:08:45.157Z,93989.14
2018-10-07T19:11:12.908Z,93992.84
2018-10-07T19:13:40.501Z,93994.61
2018-10-07T19:16:08.100Z,94006.77
2018-10-07T19:18:35.706Z,94009.52
2018-10-07T19:21:03.427Z,94007.33
2018-10-07T19:23:30.911Z,94009.91
2018-10-07T19:25:58.551Z,94010.17
2018-10-07T19:28:26.139Z,94008.86
2018-10-07T19:30:53.715Z,94013.48
2018-10-07T19:33:21.359Z,94011.44
2018-10-07T19:35:48.963Z,94012.16
2018-10-07T19:38:16.551Z,94025.33
2018-10-07T19:40:44.115Z,94024.02
2018-10-07T19:43:11.677Z,94032.13
2018-10-07T19:45:39.258Z,94023.09
2018-10-07T19:48:06.919Z,94026.17
2018-10-07T19:50:34.490Z,94026.98
2018-10-07T19:53:02.351Z,94024.94
2018-10-07T19:55:29.890Z,94022.71
2018-10-07T19:57:57.421Z,94029.78
2018-10-07T20:00:25.287Z,94025.47
2018-10-07T20:02:52.835Z,94030.39
2018-10-07T20:05:20.369Z,94033.72
2018-10-07T20:07:47.968Z,94040.16
2018-10-07T20:10:15.547Z,94028.69
2018-10-07T20:12:43.143Z,94045.68
2018-10-07T20:15:10.988Z,94042.53
2018-10-07T20:17:38.566Z,94039.19
2018-10-07T20:20:06.239Z,94040.95
2018-10-07T20:22:33.821Z,94044.16
2018-10-07T20:25:01.416Z,94047.75
2018-10-07T20:27:29.048Z,94054.75
2018-10-07T20:29:56.932Z,94052.41
2018-10-07T20:32:24.451Z,94058.78
2018-10-07T20:34:52.030Z,94055.77
2018-10-07T20:37:19.891Z,94062.36
2018-10-07T20:39:47.459Z,94064.52
2018-10-07T20:42:14.983Z,94059.78
2018-10-07T20:44:42.545Z,94062.72
2018-10-07T20:47:10.094Z,94063.63
2018-10-07T20:49:38.338Z,94069.66
2018-10-07T20:52:05.931Z,94064.04
2018-10-07T20:54:33.484Z,94061.68
2018-10-07T20:57:01.056Z,94063.91
2018-10-07T20:59:28.983Z,94066.34
2018-10-07T21:01:56.581Z,94065.78
2018-10-07T21:04:24.138Z,94070.95
2018-10-07T21:06:51.705Z,94067.31
2018-10-07T21:09:19.258Z,94065.81
2018-10-07T21:11:46.887Z,94065.81
2018-10-07T21:14:14.433Z,94061.05
2018-10-07T21:16:42.027Z,94059.41
2018-10-07T21:19:09.569Z,94066.83
2018-10-07T21:21:37.081Z,94067.96
2018-10-07T21:24:04.890Z,94071.10
2018-10-07T21:26:32.445Z,94067.89
2018-10-07T21:29:00.002Z,94071.22
2018-10-07T21:31:27.590Z,94061.08
2018-10-07T21:33:55.202Z,94073.69
2018-10-07T21:36:22.755Z,94070.55
2018-10-07T21:38:50.331Z,94069.12
2018-10-07T21:41:18.210Z,94077.03
2018-10-07T21:43:45.734Z,94070.35
2018-10-07T21:46:13.284Z,94078.35
2018-10-07T21:48:40.852Z,94080.48
2018-10-07T21:51:08.382Z,94080.29
2018-10-07T21:53:36.987Z,94075.44
2018-10-07T21:56:04.537Z,94077.03
2018-10-07T21:58:32.070Z,94076.95
2018-10-07T22:01:00.781Z,94079.08
2018-10-07T22:03:28.350Z,94077.45
2018-10-07T22:05:55.917Z,94083.34
2018-10-07T22:08:23.474Z,94077.45
2018-10-07T22:10:51.006Z,94069.73
2018-10-07T22:13:18.530Z,94070.16
2018-10-07T22:15:46.103Z,94072.00
2018-10-07T22:18:13.663Z,94067.95
2018-10-07T22:20:41.272Z,94070.98
2018-10-07T22:23:08.834Z,94058.43
2018-10-07T22:25:36.375Z,94056.69
2018-10-07T22:28:03.907Z,94056.98
2018-10-07T22:30:31.470Z,94051.09
2018-10-07T22:32:59.025Z,94057.80
2018-10-07T22:35:26.615Z,94064.40
2018-10-07T22:37:54.156Z,94060.22
2018-10-07T22:40:22.747Z,94063.66
2018-10-07T22:42:50.267Z,94065.59
2018-10-07T22:45:17.778Z,94063.66
2018-10-07T22:47:45.683Z,94064.47
2018-10-07T22:50:13.222Z,94063.64
2018-10-07T22:52:40.753Z,94070.73
2018-10-07T22:55:08.298Z,94066.08
2018-10-07T22:57:35.843Z,94065.47
2018-10-07T23:00:04.575Z,94066.27
2018-10-07T23:02:32.106Z,94073.36
2018-10-07T23:04:59.655Z,94065.46
2018-10-07T23:07:27.206Z,94065.66
2018-10-07T23:09:54.757Z,94068.70
2018-10-07T23:12:22.330Z,94058.80
2018-10-07T23:14:49.852Z,94062.85
2018-10-07T23:17:17.447Z,94065.69
2018-10-07T23:19:45.098Z,94067.30
2018-10-07T23:22:12.605Z,94061.41
2018-10-07T23:24:40.162Z,94070.11
2018-10-07T23:27:07.678Z,94068.27
2018-10-07T23:29:35.206Z,94067.19
2018-10-07T23:32:02.732Z,94072.35
2018-10-07T23:34:30.243Z,94063.24
2018-10-07T23:36:57.803Z,94066.79
2018-10-07T23:39:25.332Z,94066.47
2018-10-07T23:41:52.902Z,94069.30
2018-10-07T23:44:20.514Z,94065.80
2018-10-07T23:46:48.055Z,94065.28
2018-10-07T23:49:15.621Z,94070.33
2018-10-07T23:51:43.258Z,94070.55
2018-10-07T23:54:10.724Z,94071.73
2018-10-07T23:56:38.295Z,94062.63
2018-10-07T23:59:05.842Z,94065.25
